Poynton, United Kingdom
Current Conditions -  °F | °C
As of 10:50 PM on Monday 20 Oct 2014 (Local Time) from EGCC Reporting Station
Scattered Clouds Scattered Clouds  
Wind Chill: 54°   Ceiling: Unl
Heat Index: 54°   Visibility: 6mi
Dew Point: 50°   Wind: 15mph
Humidity: 88%   Direction: 190°S
Pressure: 29.71"   Gusts: NA
Location:  53.35°N, 2.12°W
Report Text: EGCC 202150Z 19013KT 9999 FEW026 SCT036 12/10 Q1006 NOSIG
Loading
Personal Weather Stations






























Interactive Weather Map
Tropical Storm Tracking
New forecast layout! Learn more

10-Day Weather Forecast

Advertisements
Track Severe Weather on mobile